Time;durP1;ratioP1;P1;durP2;ratioP2;P2;SDS_P1;SDS_P2;PMS_P1;PMS_P2;Temp;Humidity;BMP_temperature;BMP_pressure;BME280_temperature;BME280_humidity;BME280_pressure;Samples;Min_cycle;Max_cycle;Signal;HPM_P1;HPM_P2
2022/04/02 00:01:15;;;;;;;9.50;8.60;;;0.30;99.90;;;;;;5052094;28;20463;-68
2022/04/02 00:03:42;;;;;;;9.32;8.43;;;0.30;99.90;;;;;;5051627;28;20212;-68
2022/04/02 00:06:09;;;;;;;10.18;9.07;;;0.30;99.90;;;;;;5051689;28;20236;-69
2022/04/02 00:08:37;;;;;;;10.50;9.27;;;0.30;99.90;;;;;;5051284;28;20213;-69
2022/04/02 00:11:04;;;;;;;9.55;8.38;;;0.30;99.90;;;;;;5052053;28;20208;-69
2022/04/02 00:13:31;;;;;;;9.25;8.05;;;0.30;99.90;;;;;;5051875;28;20209;-69
2022/04/02 00:15:59;;;;;;;10.25;9.25;;;0.40;99.90;;;;;;5051487;28;20228;-69
2022/04/02 00:18:26;;;;;;;10.10;8.75;;;0.30;99.90;;;;;;5051133;28;20201;-69
2022/04/02 00:20:52;;;;;;;10.98;9.88;;;0.30;99.90;;;;;;5051422;28;20201;-69
2022/04/02 00:23:39;;;;;;;11.02;9.98;;;0.40;99.90;;;;;;5051581;28;20214;-69
2022/04/02 00:26:08;;;;;;;10.55;8.73;;;0.40;99.90;;;;;;5051248;28;20279;-69
2022/04/02 00:28:36;;;;;;;11.98;9.45;;;0.50;99.90;;;;;;5050991;28;20639;-68
2022/04/02 00:31:03;;;;;;;11.30;9.70;;;0.40;99.90;;;;;;5051238;28;20216;-68
2022/04/02 00:33:29;;;;;;;11.73;10.48;;;0.40;99.90;;;;;;5051114;28;20687;-68
2022/04/02 00:35:56;;;;;;;11.35;9.98;;;0.40;99.90;;;;;;5050920;28;20248;-69
2022/04/02 00:38:23;;;;;;;12.80;10.85;;;0.40;99.90;;;;;;5050592;28;20197;-68
2022/04/02 00:40:50;;;;;;;12.07;10.80;;;0.40;99.90;;;;;;5050938;28;20889;-69
2022/04/02 00:43:27;;;;;;;11.80;10.48;;;0.40;99.90;;;;;;5050103;28;20656;-69
2022/04/02 00:45:55;;;;;;;12.07;10.70;;;0.30;99.90;;;;;;5050947;28;20231;-69
2022/04/02 00:48:23;;;;;;;12.75;11.25;;;0.30;99.90;;;;;;5050430;28;20201;-69
2022/04/02 00:50:53;;;;;;;13.45;11.30;;;0.40;99.90;;;;;;5051003;28;20205;-69
2022/04/02 00:53:20;;;;;;;11.38;10.07;;;0.40;99.90;;;;;;5050881;28;20255;-69
2022/04/02 00:55:47;;;;;;;15.15;13.05;;;0.40;99.90;;;;;;5050479;28;20221;-68
2022/04/02 00:58:14;;;;;;;19.35;12.32;;;0.40;99.90;;;;;;5050376;28;20287;-69
2022/04/02 01:00:42;;;;;;;13.10;11.80;;;0.40;99.90;;;;;;5050627;28;20231;-69
2022/04/02 01:03:11;;;;;;;13.35;11.95;;;0.40;99.90;;;;;;5050630;28;20220;-68
2022/04/02 01:05:38;;;;;;;13.80;12.32;;;0.40;99.90;;;;;;5050459;28;20224;-69
2022/04/02 01:08:06;;;;;;;13.35;11.07;;;0.40;99.90;;;;;;5050040;28;20224;-68
2022/04/02 01:10:33;;;;;;;14.90;13.10;;;0.40;99.90;;;;;;5050545;28;20205;-69
2022/04/02 01:13:00;;;;;;;15.35;13.23;;;0.40;99.90;;;;;;5050568;28;20193;-68
2022/04/02 01:15:27;;;;;;;15.50;13.10;;;0.40;99.90;;;;;;5050594;28;20221;-68
2022/04/02 01:17:55;;;;;;;13.43;12.02;;;0.40;99.90;;;;;;5049787;28;20668;-69
2022/04/02 01:20:24;;;;;;;13.90;12.32;;;0.40;99.90;;;;;;5050529;28;20201;-68
2022/04/02 01:22:52;;;;;;;14.75;11.75;;;0.40;99.90;;;;;;5050367;28;20582;-68
2022/04/02 01:25:19;;;;;;;15.63;13.57;;;0.50;99.90;;;;;;5050534;28;20231;-69
2022/04/02 01:27:47;;;;;;;15.38;12.23;;;0.50;99.90;;;;;;5049870;28;20285;-69
2022/04/02 01:30:15;;;;;;;14.93;12.50;;;0.40;99.90;;;;;;5050600;28;20244;-69
2022/04/02 01:32:41;;;;;;;14.40;11.88;;;0.40;99.90;;;;;;5050269;28;20201;-68
2022/04/02 01:35:10;;;;;;;14.80;12.23;;;0.40;99.90;;;;;;5050316;28;20223;-69
2022/04/02 01:37:36;;;;;;;15.90;12.57;;;0.40;99.90;;;;;;5049806;28;20197;-69
2022/04/02 01:40:06;;;;;;;12.98;11.35;;;0.40;99.90;;;;;;5050462;28;20204;-69
2022/04/02 01:42:33;;;;;;;14.90;11.95;;;0.40;99.90;;;;;;5050206;28;20228;-69
2022/04/02 01:45:00;;;;;;;13.77;11.23;;;0.40;99.90;;;;;;5050280;28;20197;-69
2022/04/02 01:47:27;;;;;;;17.05;12.02;;;0.40;99.90;;;;;;5049830;28;20212;-69
2022/04/02 01:49:54;;;;;;;13.40;11.27;;;0.40;99.90;;;;;;5050295;28;20201;-69
2022/04/02 01:52:21;;;;;;;13.48;12.07;;;0.40;99.90;;;;;;5050329;28;20220;-69
2022/04/02 01:54:49;;;;;;;17.13;13.52;;;0.40;99.90;;;;;;5052738;28;20255;-69
2022/04/02 01:57:17;;;;;;;13.25;11.80;;;0.40;99.90;;;;;;5053787;28;20201;-69
2022/04/02 01:59:47;;;;;;;12.38;11.15;;;0.40;99.90;;;;;;5054520;28;20691;-69
2022/04/02 02:02:14;;;;;;;14.82;12.23;;;0.40;99.90;;;;;;5054782;28;20232;-68
2022/04/02 02:04:42;;;;;;;12.68;10.95;;;0.40;99.90;;;;;;5053991;28;20232;-69
2022/04/02 02:07:09;;;;;;;13.55;11.65;;;0.40;99.90;;;;;;5053584;28;20236;-68
2022/04/02 02:09:35;;;;;;;12.18;10.88;;;0.40;99.90;;;;;;5053993;28;20581;-69
2022/04/02 02:12:03;;;;;;;14.93;10.95;;;0.40;99.90;;;;;;5054043;28;20201;-69
2022/04/02 02:14:31;;;;;;;13.38;11.30;;;0.40;99.90;;;;;;5054019;28;20201;-68
2022/04/02 02:16:58;;;;;;;13.07;11.02;;;0.40;99.90;;;;;;5053196;28;20221;-68
2022/04/02 02:19:25;;;;;;;12.40;11.15;;;0.40;99.90;;;;;;5053872;28;20202;-68
2022/04/02 02:21:52;;;;;;;12.60;10.35;;;0.40;99.90;;;;;;5053395;28;20211;-69
2022/04/02 02:24:19;;;;;;;13.57;10.77;;;0.40;99.90;;;;;;5053907;28;20236;-68
2022/04/02 02:26:45;;;;;;;13.02;11.32;;;0.40;99.90;;;;;;5052918;28;20258;-68
2022/04/02 02:29:12;;;;;;;12.07;10.05;;;0.30;99.90;;;;;;5053606;28;20205;-68
2022/04/02 02:31:40;;;;;;;12.30;10.65;;;0.30;99.90;;;;;;5053421;28;20552;-69
2022/04/02 02:36:51;;;;;;;11.25;10.15;;;0.30;99.90;;;;;;5052901;28;20220;-68
2022/04/02 02:39:18;;;;;;;14.13;10.85;;;0.30;99.90;;;;;;5052989;28;20201;-68
2022/04/02 02:41:44;;;;;;;13.50;11.40;;;0.20;99.90;;;;;;5053399;28;20205;-68
2022/04/02 02:44:11;;;;;;;12.68;10.52;;;0.20;99.90;;;;;;5053208;28;20700;-68
2022/04/02 02:46:39;;;;;;;12.45;10.90;;;0.20;99.90;;;;;;5052904;28;20308;-69
2022/04/02 02:49:06;;;;;;;11.77;10.25;;;0.20;99.90;;;;;;5053103;28;20794;-68
2022/04/02 02:51:32;;;;;;;12.07;10.82;;;0.20;99.90;;;;;;5053223;28;20205;-68
2022/04/02 02:53:59;;;;;;;11.15;9.90;;;0.20;99.90;;;;;;5052865;28;20201;-68
2022/04/02 02:56:26;;;;;;;11.73;9.82;;;0.30;99.90;;;;;;5053486;28;20228;-68
2022/04/02 02:58:52;;;;;;;11.07;9.63;;;0.30;99.90;;;;;;5052462;28;20205;-68
2022/04/02 03:01:19;;;;;;;10.45;9.45;;;0.30;99.90;;;;;;5052882;28;20201;-68
2022/04/02 03:03:47;;;;;;;10.15;9.00;;;0.20;99.90;;;;;;5052954;28;20235;-68
2022/04/02 03:06:14;;;;;;;11.15;9.52;;;0.30;99.90;;;;;;5051568;28;20755;-69
2022/04/02 03:08:40;;;;;;;10.85;9.75;;;0.20;99.90;;;;;;5052285;28;20197;-68
2022/04/02 03:11:07;;;;;;;9.30;8.32;;;0.30;99.90;;;;;;5052551;28;20706;-68
2022/04/02 03:13:34;;;;;;;10.90;9.32;;;0.30;99.90;;;;;;5052709;28;20247;-68
2022/04/02 03:16:02;;;;;;;11.05;8.68;;;0.30;99.90;;;;;;5052474;28;20225;-69
2022/04/02 03:18:28;;;;;;;12.48;8.65;;;0.30;99.90;;;;;;5052266;28;20208;-69
2022/04/02 03:20:56;;;;;;;11.13;8.93;;;0.20;99.90;;;;;;5052629;28;20637;-69
2022/04/02 03:23:23;;;;;;;10.70;9.13;;;0.20;99.90;;;;;;5052425;28;20225;-68
2022/04/02 03:25:50;;;;;;;9.73;8.82;;;0.20;99.90;;;;;;5052399;28;20217;-69
2022/04/02 03:28:17;;;;;;;11.15;9.00;;;0.30;99.90;;;;;;5051611;28;20291;-69
2022/04/02 03:30:44;;;;;;;11.18;10.05;;;0.20;99.90;;;;;;5052503;28;20558;-68
2022/04/02 03:33:11;;;;;;;11.30;9.48;;;0.20;99.90;;;;;;5052193;28;20727;-69
2022/04/02 03:35:39;;;;;;;10.68;9.07;;;0.20;99.90;;;;;;5052395;28;20228;-68
2022/04/02 03:38:08;;;;;;;11.00;9.57;;;0.20;99.90;;;;;;5051470;28;20212;-68
2022/04/02 03:40:35;;;;;;;10.73;8.23;;;0.10;99.90;;;;;;5052504;28;20209;-68
2022/04/02 03:43:03;;;;;;;11.45;9.23;;;0.10;99.90;;;;;;5051847;28;20244;-69
2022/04/02 03:45:30;;;;;;;10.60;8.57;;;0.20;99.90;;;;;;5052281;28;20563;-68
2022/04/02 03:47:57;;;;;;;10.13;8.63;;;0.10;99.90;;;;;;5051714;28;20209;-68
2022/04/02 03:50:23;;;;;;;13.88;9.18;;;0.10;99.90;;;;;;5051969;28;20212;-68
2022/04/02 03:52:50;;;;;;;12.65;9.75;;;0.10;99.90;;;;;;5052025;28;20193;-68
2022/04/02 03:55:18;;;;;;;10.45;8.73;;;0.10;99.90;;;;;;5051670;28;20255;-68
2022/04/02 03:57:47;;;;;;;10.95;8.20;;;0.10;99.90;;;;;;5051402;28;20205;-68
2022/04/02 04:00:15;;;;;;;9.43;7.78;;;0.10;99.90;;;;;;5051718;28;20209;-68
2022/04/02 04:02:41;;;;;;;10.80;8.32;;;0.10;99.90;;;;;;5051946;28;20228;-68
2022/04/02 04:05:09;;;;;;;13.27;8.65;;;0.00;99.90;;;;;;5051522;28;20201;-68
2022/04/02 04:07:36;;;;;;;13.90;7.95;;;0.00;99.90;;;;;;5051193;28;20734;-68
2022/04/02 04:10:04;;;;;;;8.13;6.57;;;0.00;99.90;;;;;;5051532;28;20201;-68
2022/04/02 04:12:32;;;;;;;11.15;7.25;;;0.00;99.90;;;;;;5051669;28;20201;-68
2022/04/02 04:14:59;;;;;;;16.17;7.75;;;-0.10;99.90;;;;;;5051515;28;20201;-68
2022/04/02 04:17:25;;;;;;;7.82;6.90;;;-0.10;99.90;;;;;;5050726;28;20204;-68
2022/04/02 04:19:52;;;;;;;10.38;6.85;;;-0.10;99.90;;;;;;5051398;28;20208;-68
2022/04/02 04:22:20;;;;;;;12.93;7.40;;;-0.10;99.90;;;;;;5051124;28;20240;-68
2022/04/02 04:24:47;;;;;;;18.08;7.53;;;-0.10;99.90;;;;;;5051449;28;20205;-68
2022/04/02 04:27:13;;;;;;;12.55;8.30;;;-0.10;99.90;;;;;;5050369;28;20239;-68
2022/04/02 04:29:41;;;;;;;8.48;7.32;;;-0.10;99.90;;;;;;5051397;28;20197;-68
2022/04/02 04:32:09;;;;;;;7.97;7.07;;;-0.10;99.90;;;;;;5051120;28;20201;-68
2022/04/02 04:34:36;;;;;;;11.07;7.30;;;-0.10;99.90;;;;;;5051455;28;20204;-68
2022/04/02 04:37:02;;;;;;;9.98;7.03;;;-0.10;99.90;;;;;;5050317;28;20217;-68
2022/04/02 04:39:29;;;;;;;13.57;7.90;;;-0.10;99.90;;;;;;5051119;28;20205;-68
2022/04/02 04:41:56;;;;;;;11.80;6.90;;;-0.10;99.90;;;;;;5050869;28;20236;-68
2022/04/02 04:44:22;;;;;;;10.93;7.55;;;-0.10;99.90;;;;;;5050890;28;20303;-68
2022/04/02 04:46:51;;;;;;;9.40;7.55;;;-0.10;99.90;;;;;;5050293;28;20217;-68
2022/04/02 04:49:17;;;;;;;10.15;8.18;;;-0.20;99.90;;;;;;5050716;28;20204;-68
2022/04/02 04:51:44;;;;;;;9.25;7.78;;;-0.10;99.90;;;;;;5050948;28;20676;-68
2022/04/02 04:54:11;;;;;;;8.43;7.00;;;-0.10;99.90;;;;;;5050637;28;20661;-68
2022/04/02 04:56:37;;;;;;;9.60;7.95;;;-0.10;99.90;;;;;;5050348;28;20221;-69
2022/04/02 04:59:04;;;;;;;10.32;7.75;;;-0.10;99.90;;;;;;5049968;28;20243;-68
2022/04/02 05:01:31;;;;;;;9.23;8.02;;;-0.10;99.90;;;;;;5050802;28;20207;-69
2022/04/02 05:03:59;;;;;;;7.88;6.60;;;-0.10;99.90;;;;;;5050406;28;20221;-68
2022/04/02 05:06:26;;;;;;;9.07;8.27;;;-0.10;99.90;;;;;;5069803;22;20228;-89
2022/04/02 05:08:53;;;;;;;9.82;7.60;;;-0.10;99.90;;;;;;5052454;28;20201;-88
2022/04/02 05:11:20;;;;;;;9.50;8.13;;;-0.10;99.90;;;;;;5049757;28;20211;-92
2022/04/02 05:13:47;;;;;;;8.18;7.38;;;-0.10;99.90;;;;;;5039851;28;20202;-91
2022/04/02 05:16:13;;;;;;;8.43;7.45;;;-0.20;99.90;;;;;;5033216;28;20662;-91
2022/04/02 05:18:40;;;;;;;9.07;7.50;;;-0.20;99.90;;;;;;5032834;28;20209;-91
2022/04/02 05:21:09;;;;;;;11.48;7.70;;;-0.20;99.90;;;;;;5033148;28;20208;-91
2022/04/02 05:23:35;;;;;;;8.05;7.03;;;-0.20;99.90;;;;;;5032742;28;20232;-91
2022/04/02 05:26:02;;;;;;;8.48;7.07;;;-0.20;99.90;;;;;;5033299;28;20205;-91
2022/04/02 05:32:35;;;;;;;8.52;7.55;;;-0.20;99.90;;;;;;4941496;28;20204;-91
2022/04/02 05:35:38;;;;;;;7.72;6.93;;;-0.20;99.90;;;;;;4932909;29;20209;-91
2022/04/02 05:38:06;;;;;;;7.95;7.15;;;-0.30;99.90;;;;;;5032756;23;20718;-71
2022/04/02 05:40:33;;;;;;;8.23;7.43;;;-0.20;99.90;;;;;;5050007;28;20585;-71
2022/04/02 05:43:00;;;;;;;7.80;7.00;;;-0.20;99.90;;;;;;5049838;28;20707;-70
2022/04/02 05:45:26;;;;;;;7.60;6.60;;;-0.20;99.90;;;;;;5050424;28;20221;-71
2022/04/02 05:47:54;;;;;;;8.35;7.45;;;-0.20;99.90;;;;;;5049615;28;20565;-71
2022/04/02 05:50:23;;;;;;;7.45;6.70;;;-0.20;99.90;;;;;;5050318;28;20730;-71
2022/04/02 05:52:51;;;;;;;7.97;6.25;;;-0.20;99.90;;;;;;5050232;28;20430;-71
2022/04/02 05:55:20;;;;;;;7.00;6.28;;;-0.20;99.90;;;;;;5050026;28;20704;-71
2022/04/02 05:57:48;;;;;;;7.30;6.60;;;-0.10;99.90;;;;;;5049525;28;20204;-72
2022/04/02 06:00:17;;;;;;;6.78;6.10;;;-0.10;99.90;;;;;;5050296;28;20242;-72
2022/04/02 06:02:45;;;;;;;8.05;6.95;;;-0.10;99.90;;;;;;5049852;28;20208;-72
2022/04/02 06:05:13;;;;;;;8.02;7.18;;;0.00;99.90;;;;;;5049698;28;20236;-71
2022/04/02 06:07:41;;;;;;;7.53;6.82;;;0.00;99.90;;;;;;5049425;28;20661;-71
2022/04/02 06:10:09;;;;;;;6.85;6.15;;;0.00;99.90;;;;;;5050239;28;20654;-72
2022/04/02 06:12:37;;;;;;;13.48;7.50;;;0.00;99.90;;;;;;5050465;28;20228;-72
2022/04/02 06:15:05;;;;;;;7.57;6.75;;;0.10;99.90;;;;;;5050545;28;20227;-73
2022/04/02 06:17:32;;;;;;;7.25;6.55;;;0.10;99.90;;;;;;5049705;28;20208;-73
2022/04/02 06:19:58;;;;;;;6.72;6.13;;;0.10;99.90;;;;;;5049908;28;20790;-72
2022/04/02 06:22:25;;;;;;;6.70;5.60;;;0.10;99.90;;;;;;5050213;28;20201;-71
2022/04/02 06:24:52;;;;;;;6.35;5.75;;;0.20;99.90;;;;;;5049543;28;20225;-72
2022/04/02 06:27:18;;;;;;;8.82;6.75;;;0.20;99.90;;;;;;5049432;28;20201;-72
2022/04/02 06:29:48;;;;;;;7.90;5.45;;;0.20;99.90;;;;;;5049861;28;20691;-71
2022/04/02 06:32:15;;;;;;;6.15;5.55;;;0.20;99.90;;;;;;5050047;28;20201;-71
2022/04/02 06:34:41;;;;;;;5.80;5.28;;;0.20;99.90;;;;;;5049843;28;20200;-71
2022/04/02 06:37:08;;;;;;;6.28;5.78;;;0.30;99.90;;;;;;5049208;28;20259;-71
2022/04/02 06:39:35;;;;;;;7.28;6.57;;;0.30;99.90;;;;;;5049700;28;20216;-72
2022/04/02 06:42:02;;;;;;;7.65;5.68;;;0.40;99.90;;;;;;5052358;28;20672;-71
2022/04/02 06:44:29;;;;;;;6.10;5.50;;;0.30;99.90;;;;;;5053430;28;20235;-71
2022/04/02 06:46:59;;;;;;;6.25;5.30;;;0.40;99.90;;;;;;5052638;28;20304;-72
2022/04/02 06:49:26;;;;;;;6.13;5.53;;;0.40;99.90;;;;;;5053489;28;20296;-72
2022/04/02 06:51:53;;;;;;;6.57;5.90;;;0.40;99.90;;;;;;5053072;28;20665;-72
2022/04/02 06:54:19;;;;;;;6.15;5.60;;;0.40;99.90;;;;;;5053347;28;20201;-72
2022/04/02 06:56:48;;;;;;;6.50;5.80;;;0.40;99.90;;;;;;5052384;28;20228;-71
2022/04/02 06:59:15;;;;;;;6.05;5.20;;;0.40;99.90;;;;;;5053332;28;20197;-72
2022/04/02 07:01:42;;;;;;;5.35;4.95;;;0.50;99.90;;;;;;5052941;28;20605;-72
2022/04/02 07:04:10;;;;;;;5.50;5.00;;;0.60;99.90;;;;;;5053184;28;20221;-72
2022/04/02 07:06:38;;;;;;;6.18;5.60;;;0.50;99.90;;;;;;5052894;28;20570;-72
2022/04/02 07:09:05;;;;;;;6.47;5.90;;;0.50;99.90;;;;;;5045624;28;20229;-71
2022/04/02 07:11:32;;;;;;;6.32;5.70;;;0.50;99.90;;;;;;5050393;28;20193;-70
2022/04/02 07:14:00;;;;;;;6.40;5.55;;;0.50;99.90;;;;;;5051041;28;20212;-72
2022/04/02 07:16:28;;;;;;;7.13;5.65;;;0.50;99.90;;;;;;5050273;28;20249;-70
2022/04/02 07:18:58;;;;;;;5.60;5.10;;;0.60;99.90;;;;;;5050530;28;20201;-71
2022/04/02 07:21:28;;;;;;;6.43;5.57;;;0.60;99.90;;;;;;5051792;28;20229;-71
2022/04/02 07:23:56;;;;;;;6.25;5.60;;;0.70;99.90;;;;;;5050871;28;20271;-71
2022/04/02 07:26:23;;;;;;;7.22;5.45;;;0.60;99.90;;;;;;5051369;28;20232;-71
2022/04/02 07:28:52;;;;;;;6.55;5.50;;;0.60;99.90;;;;;;5051059;28;20267;-70
2022/04/02 07:31:19;;;;;;;6.10;5.40;;;0.60;99.90;;;;;;5050897;28;20292;-70
2022/04/02 07:33:46;;;;;;;6.35;5.75;;;0.70;99.90;;;;;;5051200;28;20213;-72
2022/04/02 07:36:24;;;;;;;8.63;5.80;;;0.70;99.90;;;;;;5051073;28;20229;-70
2022/04/02 07:39:02;;;;;;;6.63;5.95;;;0.60;99.90;;;;;;5049946;28;20204;-71
2022/04/02 07:41:40;;;;;;;6.07;5.53;;;0.70;99.90;;;;;;5051185;28;20680;-73
2022/04/02 07:44:17;;;;;;;7.10;5.30;;;0.70;99.90;;;;;;5050951;28;20224;-71
2022/04/02 07:46:47;;;;;;;6.40;5.80;;;0.80;99.90;;;;;;5049685;28;20327;-72
2022/04/02 07:49:18;;;;;;;6.13;5.50;;;0.80;99.90;;;;;;5050935;28;20598;-72
2022/04/02 07:51:47;;;;;;;7.13;5.90;;;0.80;99.90;;;;;;5050173;28;20228;-72
2022/04/02 07:54:18;;;;;;;5.40;4.90;;;0.70;99.90;;;;;;5050094;28;20255;-72
2022/04/02 07:56:49;;;;;;;6.10;5.38;;;0.70;99.90;;;;;;5036715;28;20701;-71
2022/04/02 07:59:23;;;;;;;6.72;6.03;;;0.70;99.90;;;;;;5029818;28;20190;-72
2022/04/02 08:01:50;;;;;;;5.43;4.70;;;0.60;99.90;;;;;;5027133;28;20190;-71
2022/04/02 08:04:21;;;;;;;5.38;4.88;;;0.50;99.90;;;;;;5029963;28;20237;-70
2022/04/02 08:06:49;;;;;;;6.18;5.57;;;0.50;99.90;;;;;;5025900;28;20221;-71
2022/04/02 08:09:20;;;;;;;5.50;5.00;;;0.40;99.90;;;;;;5029422;28;20198;-71
2022/04/02 08:11:48;;;;;;;5.22;4.72;;;0.50;99.90;;;;;;5026794;28;20254;-71
2022/04/02 08:14:15;;;;;;;7.97;6.25;;;0.50;99.90;;;;;;5029914;28;20220;-72
2022/04/02 08:16:43;;;;;;;7.63;6.40;;;0.60;99.90;;;;;;5029220;28;20218;-70
2022/04/02 08:19:11;;;;;;;6.78;6.15;;;0.60;99.90;;;;;;5030402;28;20256;-70
2022/04/02 08:21:38;;;;;;;7.03;6.05;;;0.60;99.90;;;;;;5030823;28;20206;-69
2022/04/02 08:24:06;;;;;;;6.13;5.53;;;0.70;99.90;;;;;;5030577;28;20666;-73
2022/04/02 08:26:41;;;;;;;6.03;5.40;;;0.80;99.90;;;;;;5030325;28;20224;-70
2022/04/02 08:29:25;;;;;;;6.85;6.20;;;0.80;99.90;;;;;;5030472;28;20209;-72
2022/04/02 08:32:01;;;;;;;7.43;6.53;;;0.90;99.90;;;;;;5028665;28;20202;-72
2022/04/02 08:34:45;;;;;;;6.80;5.30;;;0.90;99.90;;;;;;5027138;28;20588;-72
2022/04/02 08:37:18;;;;;;;6.60;5.97;;;0.90;99.90;;;;;;5026681;28;20245;-71
2022/04/02 08:39:55;;;;;;;7.45;5.85;;;0.80;99.90;;;;;;5025890;28;20227;-71
2022/04/02 08:42:56;;;;;;;15.57;11.55;;;0.80;99.90;;;;;;5032704;28;20219;-69
2022/04/02 08:45:28;;;;;;;7.10;5.75;;;0.80;99.90;;;;;;5003582;28;20253;-70
2022/04/02 08:48:27;;;;;;;6.30;5.70;;;0.70;99.90;;;;;;5029660;28;20678;-71
2022/04/02 08:51:14;;;;;;;6.53;5.68;;;0.70;99.90;;;;;;5029893;28;20206;-72
2022/04/02 08:53:54;;;;;;;7.20;6.47;;;0.70;99.90;;;;;;5029776;28;20272;-72
2022/04/02 08:56:25;;;;;;;7.38;5.82;;;0.80;99.90;;;;;;5029041;28;20218;-72
2022/04/02 08:59:04;;;;;;;5.78;5.28;;;0.80;99.90;;;;;;5029064;28;20205;-72
2022/04/02 09:01:40;;;;;;;6.72;6.07;;;0.80;99.90;;;;;;5029799;28;20692;-72
2022/04/02 09:04:37;;;;;;;5.90;5.30;;;0.90;99.90;;;;;;5029222;28;20228;-72
2022/04/02 09:07:40;;;;;;;5.75;5.05;;;1.00;99.90;;;;;;5028511;28;20217;-71
2022/04/02 09:10:39;;;;;;;5.75;5.13;;;1.10;99.90;;;;;;5030084;28;20204;-71
2022/04/02 09:13:49;;;;;;;7.03;5.20;;;1.20;99.90;;;;;;5030310;28;20228;-72
2022/04/02 09:16:25;;;;;;;6.25;5.20;;;1.40;99.90;;;;;;5029084;28;20288;-72
2022/04/02 09:19:11;;;;;;;6.20;5.70;;;1.20;99.90;;;;;;5028741;28;20292;-72
2022/04/02 09:22:04;;;;;;;6.78;5.35;;;1.10;99.90;;;;;;5029203;28;20206;-72
2022/04/02 09:24:57;;;;;;;6.88;6.18;;;1.10;99.90;;;;;;5029518;28;20229;-71
2022/04/02 09:28:02;;;;;;;6.28;5.68;;;1.10;99.90;;;;;;5015465;28;20205;-72
2022/04/02 09:30:59;;;;;;;6.75;6.05;;;1.20;99.90;;;;;;5024747;28;20229;-71
2022/04/02 09:33:58;;;;;;;6.70;6.05;;;1.20;99.90;;;;;;4995416;28;20224;-71
2022/04/02 09:36:30;;;;;;;8.30;7.20;;;1.20;99.90;;;;;;5028637;28;20244;-71
2022/04/02 09:39:03;;;;;;;9.07;6.40;;;1.20;99.90;;;;;;5028075;28;20214;-72
2022/04/02 09:41:59;;;;;;;7.68;5.90;;;1.20;99.90;;;;;;5029489;28;20208;-72
2022/04/02 09:44:53;;;;;;;5.88;5.38;;;1.10;99.90;;;;;;5028663;28;20676;-72
2022/04/02 09:47:24;;;;;;;7.90;6.93;;;1.10;99.90;;;;;;5028636;28;20202;-72
2022/04/02 09:50:08;;;;;;;7.78;6.60;;;1.10;99.90;;;;;;5028914;28;20210;-72
2022/04/02 09:52:38;;;;;;;7.80;6.60;;;1.10;99.90;;;;;;5029217;28;20555;-72
2022/04/02 09:55:08;;;;;;;7.55;6.80;;;1.10;99.90;;;;;;5028560;28;20237;-71
2022/04/02 09:57:49;;;;;;;8.32;7.45;;;1.10;99.90;;;;;;5028026;28;20213;-71
2022/04/02 10:00:18;;;;;;;8.35;7.55;;;1.10;99.90;;;;;;5028968;28;20202;-72
2022/04/02 10:03:00;;;;;;;8.10;7.30;;;1.10;99.90;;;;;;5030139;28;20581;-72
2022/04/02 10:05:40;;;;;;;7.85;6.95;;;1.10;99.90;;;;;;5031116;28;20583;-71
2022/04/02 10:08:12;;;;;;;7.68;6.85;;;1.00;99.90;;;;;;5028722;28;20225;-72
2022/04/02 10:10:42;;;;;;;7.40;6.60;;;1.00;99.90;;;;;;5032275;28;20301;-73
2022/04/02 10:13:10;;;;;;;10.93;6.72;;;1.00;99.90;;;;;;5029965;28;20213;-73
2022/04/02 10:15:42;;;;;;;7.70;6.47;;;1.00;99.90;;;;;;5031712;28;20222;-72
2022/04/02 10:18:11;;;;;;;7.00;6.30;;;1.10;99.90;;;;;;5032638;28;20213;-72
2022/04/02 10:20:45;;;;;;;8.35;6.82;;;1.10;99.90;;;;;;5032500;28;20209;-72
2022/04/02 10:23:20;;;;;;;7.07;6.10;;;1.10;99.90;;;;;;5032779;28;20669;-72
2022/04/02 10:26:01;;;;;;;11.60;7.07;;;1.10;99.90;;;;;;5032457;28;20229;-72
2022/04/02 10:28:32;;;;;;;9.15;6.90;;;1.20;99.90;;;;;;5032874;28;20212;-72
2022/04/02 10:31:01;;;;;;;7.25;6.50;;;1.20;99.90;;;;;;5033049;28;20213;-71
2022/04/02 10:33:36;;;;;;;7.75;6.97;;;1.20;99.90;;;;;;5030900;28;20221;-71
2022/04/02 10:36:09;;;;;;;8.65;6.90;;;1.30;99.90;;;;;;5031816;28;20217;-71
2022/04/02 10:38:38;;;;;;;8.73;7.05;;;1.40;99.90;;;;;;5032269;28;20241;-71
2022/04/02 10:41:08;;;;;;;8.00;7.20;;;1.50;99.90;;;;;;5033210;28;20237;-69
2022/04/02 10:43:42;;;;;;;8.77;7.57;;;1.50;99.90;;;;;;5032353;28;20276;-68
2022/04/02 10:46:09;;;;;;;7.40;6.53;;;1.60;99.90;;;;;;5032989;28;20230;-69
2022/04/02 10:48:50;;;;;;;8.52;7.35;;;1.70;99.90;;;;;;5031685;28;20221;-67
2022/04/02 10:51:23;;;;;;;7.13;6.43;;;1.70;99.90;;;;;;5032232;28;20247;-68
2022/04/02 10:53:56;;;;;;;7.10;6.40;;;1.70;99.90;;;;;;5043260;28;20205;-69
2022/04/02 10:56:28;;;;;;;6.90;6.20;;;1.60;99.90;;;;;;5052011;28;20837;-69
2022/04/02 10:58:55;;;;;;;6.18;5.60;;;1.50;99.90;;;;;;5050975;28;20216;-68
2022/04/02 11:01:23;;;;;;;7.35;6.65;;;1.50;99.90;;;;;;5052273;28;20205;-69
2022/04/02 11:03:55;;;;;;;8.52;6.90;;;1.50;99.90;;;;;;5051657;28;20201;-69
2022/04/02 11:06:47;;;;;;;7.15;6.50;;;1.50;99.90;;;;;;5051304;28;20306;-68
2022/04/02 11:09:31;;;;;;;7.57;6.82;;;1.50;99.90;;;;;;5051976;28;20232;-68
2022/04/02 11:11:59;;;;;;;7.63;6.55;;;1.50;99.90;;;;;;5051988;28;20205;-69
2022/04/02 11:14:26;;;;;;;8.52;6.85;;;1.30;99.90;;;;;;5041713;28;20194;-68
2022/04/02 11:16:53;;;;;;;9.40;6.78;;;1.20;99.90;;;;;;5031093;28;20253;-68
2022/04/02 11:22:23;;;;;;;7.78;6.18;;;1.30;99.90;;;;;;4993907;28;20214;-68
2022/04/02 11:25:04;;;;;;;8.93;7.78;;;1.30;99.90;;;;;;5011710;28;20237;-69
2022/04/02 11:27:36;;;;;;;7.60;6.90;;;1.40;99.90;;;;;;5010279;28;20577;-68
2022/04/02 11:30:06;;;;;;;8.13;7.32;;;1.40;99.90;;;;;;5011751;28;20202;-69
2022/04/02 11:32:40;;;;;;;7.70;6.65;;;1.40;99.90;;;;;;5011728;28;20210;-69
2022/04/02 11:35:14;;;;;;;8.85;6.95;;;1.40;99.90;;;;;;5010985;28;20198;-70
2022/04/02 11:37:55;;;;;;;8.27;7.38;;;1.40;99.90;;;;;;5010767;28;20703;-70
2022/04/02 11:40:27;;;;;;;10.88;7.18;;;1.40;99.90;;;;;;5011621;28;20206;-69
2022/04/02 11:42:55;;;;;;;7.63;6.93;;;1.40;99.90;;;;;;5011248;28;20209;-69
2022/04/02 11:45:22;;;;;;;6.47;5.88;;;1.30;99.90;;;;;;5011445;28;20618;-69
2022/04/02 11:47:50;;;;;;;7.97;7.28;;;1.40;99.90;;;;;;5041004;28;20216;-70
2022/04/02 11:50:26;;;;;;;7.40;6.70;;;1.50;99.90;;;;;;5029121;28;20681;-70
2022/04/02 11:52:56;;;;;;;7.80;7.00;;;1.70;99.90;;;;;;5028272;28;21734;-70
2022/04/02 11:55:23;;;;;;;8.35;7.45;;;2.10;99.90;;;;;;5029229;28;20213;-68
2022/04/02 11:57:58;;;;;;;7.75;6.72;;;2.40;99.90;;;;;;5027264;28;20198;-68
2022/04/02 12:00:26;;;;;;;8.15;7.35;;;2.60;99.90;;;;;;5027794;28;20204;-69
2022/04/02 12:02:53;;;;;;;8.23;7.30;;;2.50;99.90;;;;;;5029016;28;20202;-69
2022/04/02 12:05:21;;;;;;;7.30;6.60;;;2.40;99.90;;;;;;5028517;28;20224;-69
2022/04/02 12:07:49;;;;;;;7.60;6.85;;;2.20;99.90;;;;;;5027329;28;20205;-69
2022/04/02 12:10:23;;;;;;;7.35;6.68;;;2.20;99.90;;;;;;5028675;28;20201;-70
2022/04/02 12:12:52;;;;;;;8.10;7.35;;;1.90;99.90;;;;;;5027274;28;20198;-69
2022/04/02 12:15:19;;;;;;;7.20;6.50;;;1.70;99.90;;;;;;5028269;28;20206;-71
2022/04/02 12:17:48;;;;;;;8.25;7.50;;;1.60;99.90;;;;;;5026527;28;20272;-70
2022/04/02 12:20:20;;;;;;;7.50;6.80;;;1.50;99.90;;;;;;5027282;28;20205;-70
2022/04/02 12:22:47;;;;;;;7.70;6.90;;;1.40;99.90;;;;;;5027389;28;20743;-70
2022/04/02 12:25:21;;;;;;;9.55;7.68;;;1.40;99.90;;;;;;5028031;28;20630;-71
2022/04/02 12:27:50;;;;;;;7.85;7.05;;;1.50;99.90;;;;;;5026203;28;20249;-70
2022/04/02 12:30:23;;;;;;;8.40;7.47;;;1.60;99.90;;;;;;5028053;28;20198;-71
2022/04/02 12:32:50;;;;;;;8.18;7.45;;;1.70;99.90;;;;;;5027422;28;20673;-71
2022/04/02 12:35:24;;;;;;;9.90;8.07;;;1.60;99.90;;;;;;5027172;28;20209;-70
2022/04/02 12:37:54;;;;;;;9.18;7.97;;;1.60;99.90;;;;;;5025369;28;20209;-71
2022/04/02 12:40:25;;;;;;;9.82;8.75;;;1.40;99.90;;;;;;5027894;28;20209;-71
2022/04/02 12:42:53;;;;;;;10.73;8.60;;;1.40;99.90;;;;;;5028241;28;20228;-70
2022/04/02 12:45:22;;;;;;;11.90;9.68;;;1.40;99.90;;;;;;5025802;28;20221;-70
2022/04/02 12:48:09;;;;;;;9.93;8.77;;;1.30;99.90;;;;;;5026294;28;20631;-70
2022/04/02 12:50:38;;;;;;;9.10;8.20;;;1.40;99.90;;;;;;5026620;28;20245;-71
2022/04/02 12:53:05;;;;;;;9.25;8.25;;;1.50;99.90;;;;;;5027643;28;20202;-72
2022/04/02 12:55:35;;;;;;;9.07;7.97;;;1.50;99.90;;;;;;5028629;28;20218;-72
2022/04/02 12:58:07;;;;;;;9.43;8.52;;;1.40;99.90;;;;;;5027035;28;20673;-71
2022/04/02 13:00:36;;;;;;;10.55;9.02;;;1.40;99.90;;;;;;5025491;28;20293;-70
2022/04/02 13:03:03;;;;;;;9.25;8.38;;;1.30;99.90;;;;;;5027135;28;20224;-71
2022/04/02 13:05:46;;;;;;;11.30;9.20;;;1.30;99.90;;;;;;5026679;28;20226;-70
2022/04/02 13:08:27;;;;;;;8.95;8.10;;;1.40;99.90;;;;;;5026465;28;20296;-71
2022/04/02 13:10:59;;;;;;;10.02;8.55;;;1.50;99.90;;;;;;5027299;28;20877;-71
2022/04/02 13:13:40;;;;;;;12.07;8.73;;;1.50;99.90;;;;;;5025830;28;20205;-70
2022/04/02 13:16:09;;;;;;;9.43;8.52;;;1.60;99.90;;;;;;5026599;28;20620;-71
2022/04/02 13:21:32;;;;;;;9.15;8.30;;;1.60;99.90;;;;;;5027049;28;20205;-70